KMOD/MOD METAR and TAF weather

Enter ICAO airport designator
Station Type Date Time Source
KMOD METAR 2023/02/04 02:53 UTC NOAA

KMOD 040253Z 29007KT 9SM CLR 10/08 A3021 RMK AO2 SLP231 T01000083 55000


Station Type Date Time Source
KMOD Decoded METAR 2023/02/04 02:53 UTC NOAA

MODESTO CITY CO SHAM FLD, CA, United States (KMOD) 37-37N 120-57W 29M
Feb 03, 2023 - 09:53 PM EST / 2023.02.04 0253 UTC
Wind: from the WNW (290 degrees) at 8 MPH (7 KT):0
Visibility: 9 mile(s):0
Sky conditions: clear
Temperature: 50.0 F (10.0 C)
Dew Point: 46.9 F (8.3 C)
Relative Humidity: 89%
Pressure (altimeter): 30.21 in. Hg (1023 hPa)
Pressure tendency: 0.00 inches (0.0 hPa) lower than three hours ago
ob: KMOD 040253Z 29007KT 9SM CLR 10/08 A3021 RMK AO2 SLP231 T01000083 55000
cycle: 3

Station Type Date Time Source
KMOD TAF 2023/02/03 18:39 UTC NOAA

TAF TAF KMOD 031735Z 0318/0418 18006KT P6SM -RA OVC080
FM032100 13010KT P6SM VCSH BKN090 OVC120
FM040100 VRB03KT P6SM BKN080 OVC120
FM041000 VRB03KT 4SM BR OVC025
FM041200 VRB03KT 1/2SM FG OVC003

Example: see airport list